Time;durP1;ratioP1;P1;durP2;ratioP2;P2;SDS_P1;SDS_P2;PMS_P1;PMS_P2;Temp;Humidity;BMP_temperature;BMP_pressure;BME280_temperature;BME280_humidity;BME280_pressure;Samples;Min_cycle;Max_cycle;Signal;HPM_P1;HPM_P2
2024/01/13 00:01:03;;;;;;;0.20;0.10;;;;;;;1.64;98.10;101526.56;5031631;28;20443;-54
2024/01/13 00:03:29;;;;;;;0.20;0.10;;;;;;;1.62;98.17;101530.88;5031923;28;20811;-54
2024/01/13 00:05:56;;;;;;;0.20;0.10;;;;;;;1.69;98.03;101531.94;5031563;28;20937;-54
2024/01/13 00:08:22;;;;;;;0.20;0.10;;;;;;;1.62;98.03;101530.88;5031780;28;20482;-53
2024/01/13 00:11:02;;;;;;;0.20;0.10;;;;;;;1.65;97.37;101525.75;5043873;28;20458;-54
2024/01/13 00:13:28;;;;;;;0.20;0.10;;;;;;;1.59;97.47;101522.03;5031720;28;20455;-53
2024/01/13 00:15:55;;;;;;;0.20;0.10;;;;;;;1.64;97.14;101525.66;5031308;28;20817;-53
2024/01/13 00:18:21;;;;;;;0.20;0.10;;;;;;;1.63;97.46;101522.16;5031473;28;20503;-53
2024/01/13 00:21:04;;;;;;;0.20;0.10;;;;;;;1.47;96.81;101514.72;5031690;28;20483;-54
2024/01/13 00:23:31;;;;;;;4.33;4.13;;;;;;;1.56;97.62;101511.50;5039303;28;20948;-54
2024/01/13 00:25:58;;;;;;;0.20;0.10;;;;;;;1.56;98.46;101506.25;5031457;28;20494;-53
2024/01/13 00:28:25;;;;;;;0.20;0.10;;;;;;;1.59;97.42;101506.31;5031326;28;20484;-53
2024/01/13 00:31:02;;;;;;;0.20;0.10;;;;;;;1.61;96.93;101502.00;5031554;28;20471;-53
2024/01/13 00:33:29;;;;;;;0.20;0.10;;;;;;;1.46;97.05;101499.84;5031410;28;20443;-53
2024/01/13 00:35:56;;;;;;;0.20;0.10;;;;;;;1.44;97.78;101491.06;5038678;28;20448;-53
2024/01/13 00:38:23;;;;;;;0.20;0.10;;;;;;;1.59;97.96;101491.50;5037207;28;20474;-54
2024/01/13 00:41:01;;;;;;;0.20;0.10;;;;;;;1.25;99.04;101492.28;5031939;28;20486;-54
2024/01/13 00:43:27;;;;;;;0.20;0.17;;;;;;;1.29;99.04;101480.16;5035324;28;20455;-54
2024/01/13 00:45:54;;;;;;;0.20;0.10;;;;;;;1.39;99.02;101479.59;5043726;28;20487;-54
2024/01/13 00:48:20;;;;;;;0.20;0.10;;;;;;;1.52;98.91;101489.56;5034567;28;20560;-53
2024/01/13 00:50:55;;;;;;;0.20;0.10;;;;;;;1.54;98.28;101481.75;5042536;28;20455;-54
2024/01/13 00:53:22;;;;;;;0.20;0.10;;;;;;;1.62;98.25;101481.09;5034954;28;20541;-54
2024/01/13 00:55:48;;;;;;;0.20;0.10;;;;;;;1.61;97.20;101486.28;5034808;28;21011;-53
2024/01/13 00:58:16;;;;;;;0.20;0.10;;;;;;;1.47;98.10;101480.66;5033777;28;20467;-54
2024/01/13 01:01:00;;;;;;;0.20;0.10;;;;;;;1.69;98.25;101479.53;5035024;28;20447;-54
2024/01/13 01:03:27;;;;;;;7.47;6.17;;;;;;;1.65;97.82;101475.06;5035000;28;20451;-54
2024/01/13 01:05:54;;;;;;;0.20;0.10;;;;;;;1.57;98.17;101480.09;5034757;28;20491;-54
2024/01/13 01:08:21;;;;;;;0.20;0.10;;;;;;;1.70;98.13;101466.47;5034636;28;20497;-54
2024/01/13 01:10:52;;;;;;;0.20;0.10;;;;;;;1.68;97.78;101475.13;5034547;28;20452;-54
2024/01/13 01:13:19;;;;;;;0.20;0.10;;;;;;;1.70;96.58;101466.47;5034640;28;20933;-54
2024/01/13 01:15:47;;;;;;;3.83;3.50;;;;;;;1.54;96.65;101472.16;5034864;28;20484;-54
2024/01/13 01:18:13;;;;;;;0.20;0.10;;;;;;;1.59;97.10;101474.88;5034493;28;20538;-54
2024/01/13 01:20:49;;;;;;;0.20;0.10;;;;;;;1.66;97.15;101466.34;5034574;28;20452;-53
2024/01/13 01:23:16;;;;;;;0.20;0.10;;;;;;;1.63;97.17;101464.50;5034465;28;20514;-54
2024/01/13 01:25:43;;;;;;;0.20;0.10;;;;;;;1.74;97.54;101451.69;5034003;28;20557;-54
2024/01/13 01:28:09;;;;;;;0.20;0.10;;;;;;;1.75;97.08;101441.25;5034385;28;20468;-54
2024/01/13 01:30:46;;;;;;;0.20;0.10;;;;;;;1.31;98.61;101457.53;5034419;28;20467;-53
2024/01/13 01:33:12;;;;;;;0.20;0.10;;;;;;;1.13;99.37;101450.94;5034107;28;20530;-54
2024/01/13 01:35:39;;;;;;;0.20;0.10;;;;;;;1.45;99.62;101436.09;5039037;28;20935;-54
2024/01/13 01:38:06;;;;;;;0.20;0.10;;;;;;;1.58;99.14;101437.31;5042000;28;20471;-54
2024/01/13 01:40:35;;;;;;;0.20;0.10;;;;;;;1.49;98.61;101432.69;5034236;28;20456;-54
2024/01/13 01:43:02;;;;;;;0.20;0.10;;;;;;;1.24;99.67;101434.66;5033949;28;20953;-54
2024/01/13 01:45:29;;;;;;;0.20;0.10;;;;;;;1.16;99.95;101431.81;5034176;28;20487;-54
2024/01/13 01:47:55;;;;;;;0.20;0.10;;;;;;;1.23;100.00;101430.22;5033857;28;20483;-54
2024/01/13 01:50:22;;;;;;;0.20;0.10;;;;;;;1.36;99.83;101432.34;5033809;28;20451;-54
2024/01/13 01:52:48;;;;;;;0.20;0.10;;;;;;;1.22;99.65;101420.59;5028350;28;20467;-53
2024/01/13 01:55:15;;;;;;;0.53;0.53;;;;;;;1.31;99.40;101413.88;5033921;28;20505;-54
2024/01/13 01:57:41;;;;;;;0.20;0.10;;;;;;;1.35;100.00;101423.59;5033764;28;20474;-54
2024/01/13 02:00:11;;;;;;;0.20;0.10;;;;;;;1.45;99.90;101416.88;5033673;28;20451;-54
2024/01/13 02:02:38;;;;;;;0.20;0.10;;;;;;;1.56;99.73;101419.78;5033589;28;20538;-54
2024/01/13 02:05:05;;;;;;;0.20;0.10;;;;;;;1.41;98.89;101410.69;5033769;28;20506;-54
2024/01/13 02:07:33;;;;;;;0.30;0.10;;;;;;;1.41;99.10;101408.06;5033319;28;20462;-54
2024/01/13 02:09:59;;;;;;;0.20;0.10;;;;;;;1.41;99.37;101413.31;5033579;28;20463;-54
2024/01/13 02:12:26;;;;;;;0.20;0.10;;;;;;;1.46;99.15;101409.06;5046221;28;20454;-54
2024/01/13 02:14:54;;;;;;;0.20;0.10;;;;;;;1.43;99.14;101414.22;5033528;28;20534;-54
2024/01/13 02:17:22;;;;;;;0.20;0.10;;;;;;;1.25;99.95;101407.63;5043090;28;20450;-53
2024/01/13 02:19:48;;;;;;;0.20;0.10;;;;;;;1.37;99.14;101408.84;5033347;28;20477;-54
2024/01/13 02:22:15;;;;;;;0.20;0.10;;;;;;;1.41;98.95;101409.78;5032029;28;20547;-53
2024/01/13 02:24:41;;;;;;;0.20;0.10;;;;;;;1.55;98.71;101408.41;5033291;28;20535;-54
2024/01/13 02:27:08;;;;;;;0.20;0.10;;;;;;;1.62;98.33;101401.59;5033254;28;20736;-54
2024/01/13 02:29:34;;;;;;;0.20;0.10;;;;;;;1.64;98.13;101400.78;5032748;28;20984;-54
2024/01/13 02:32:01;;;;;;;0.20;0.10;;;;;;;1.72;97.62;101403.59;5041755;28;20455;-54
2024/01/13 02:34:27;;;;;;;0.20;0.10;;;;;;;1.65;97.19;101394.72;5031745;28;20767;-54
2024/01/13 02:36:54;;;;;;;0.20;0.10;;;;;;;1.62;96.80;101394.63;5046179;28;20447;-54
2024/01/13 02:39:20;;;;;;;0.20;0.10;;;;;;;1.60;97.25;101387.56;5033103;28;20471;-54
2024/01/13 02:41:47;;;;;;;0.20;0.10;;;;;;;1.61;96.94;101391.97;5032840;28;20463;-54
2024/01/13 02:44:14;;;;;;;0.20;0.10;;;;;;;1.45;98.27;101386.31;5034524;28;20862;-54
2024/01/13 02:46:40;;;;;;;0.20;0.10;;;;;;;1.66;96.94;101396.50;5036922;28;20491;-54
2024/01/13 02:49:08;;;;;;;0.20;0.10;;;;;;;1.67;97.72;101390.41;5040242;28;20562;-54
2024/01/13 02:51:34;;;;;;;0.57;0.57;;;;;;;1.70;97.14;101389.59;5036807;28;20459;-54
2024/01/13 02:54:01;;;;;;;0.20;0.10;;;;;;;1.65;96.78;101386.84;5031668;28;20448;-54
2024/01/13 02:56:27;;;;;;;0.20;0.10;;;;;;;1.66;97.25;101392.97;5032651;28;20463;-54
2024/01/13 02:58:55;;;;;;;0.20;0.10;;;;;;;1.44;97.74;101384.56;5032441;28;20554;-53
2024/01/13 03:01:21;;;;;;;0.20;0.10;;;;;;;1.44;97.62;101386.28;5031151;28;20782;-54
2024/01/13 03:03:49;;;;;;;0.53;0.53;;;;;;;1.43;98.00;101381.91;5039893;28;20865;-54
2024/01/13 03:06:19;;;;;;;0.20;0.10;;;;;;;1.62;97.69;101378.88;5035636;28;20538;-54
2024/01/13 03:08:46;;;;;;;0.20;0.10;;;;;;;1.73;96.95;101380.06;5032280;28;21026;-54
2024/01/13 03:11:13;;;;;;;0.20;0.10;;;;;;;1.76;96.53;101385.38;5032196;28;20451;-54
2024/01/13 03:13:42;;;;;;;0.20;0.10;;;;;;;1.60;96.95;101385.84;5035213;28;20452;-54
2024/01/13 03:16:09;;;;;;;0.30;0.30;;;;;;;1.70;97.18;101376.47;5032191;28;20821;-54
2024/01/13 03:18:36;;;;;;;0.20;0.10;;;;;;;1.61;97.27;101373.63;5032158;28;20468;-54
2024/01/13 03:21:11;;;;;;;0.20;0.10;;;;;;;1.71;97.49;101368.66;5032277;28;20447;-54
2024/01/13 03:23:41;;;;;;;4.43;3.80;;;;;;;1.31;97.23;101365.88;5032148;28;20447;-54
2024/01/13 03:26:08;;;;;;;0.20;0.10;;;;;;;1.34;99.07;101360.69;5031909;28;21079;-54
2024/01/13 03:28:34;;;;;;;0.20;0.10;;;;;;;1.35;98.87;101370.31;5043744;22;21077;-90
2024/01/13 03:31:12;;;;;;;0.20;0.10;;;;;;;1.44;98.67;101363.59;5029671;28;20511;-88
2024/01/13 03:33:43;;;;;;;0.20;0.10;;;;;;;1.51;97.91;101340.16;5017738;28;20456;-88
2024/01/13 03:36:10;;;;;;;0.20;0.10;;;;;;;1.64;97.37;101350.09;5024289;28;20480;-89
2024/01/13 03:38:38;;;;;;;0.20;0.10;;;;;;;1.61;97.35;101353.53;5028826;28;20479;-88
2024/01/13 03:41:10;;;;;;;0.20;0.10;;;;;;;1.43;97.41;101348.72;5022338;28;20484;-89
2024/01/13 03:43:37;;;;;;;0.20;0.10;;;;;;;1.39;97.46;101325.06;5026127;28;20499;-89
2024/01/13 03:46:05;;;;;;;0.40;0.40;;;;;;;1.63;97.85;101340.47;5024120;28;20816;-89
2024/01/13 03:48:31;;;;;;;0.20;0.10;;;;;;;1.54;97.13;101340.28;5020207;28;20906;-88
2024/01/13 03:51:02;;;;;;;0.20;0.10;;;;;;;1.45;97.67;101340.91;5033729;28;21016;-88
2024/01/13 03:53:31;;;;;;;0.20;0.10;;;;;;;1.59;97.89;101338.63;5018900;28;20449;-88
2024/01/13 03:55:59;;;;;;;0.20;0.10;;;;;;;1.06;98.77;101323.31;5013481;28;20462;-88
2024/01/13 03:58:25;;;;;;;0.20;0.10;;;;;;;1.36;99.19;101328.47;5019093;28;20451;-88
2024/01/13 04:00:51;;;;;;;0.20;0.10;;;;;;;1.51;97.89;101312.28;5029781;28;20542;-89
2024/01/13 04:03:20;;;;;;;0.20;0.10;;;;;;;1.60;96.60;101336.06;5014210;28;20978;-89
2024/01/13 04:05:47;;;;;;;0.20;0.10;;;;;;;1.64;96.67;101329.16;5026284;28;20801;-89
2024/01/13 04:08:14;;;;;;;0.20;0.10;;;;;;;1.56;96.70;101322.84;5014003;28;20471;-89
2024/01/13 04:10:40;;;;;;;0.20;0.10;;;;;;;1.66;97.14;101315.25;5026362;28;20471;-88
2024/01/13 04:13:12;;;;;;;0.20;0.10;;;;;;;1.59;96.64;101304.56;5027170;28;20464;-88
2024/01/13 04:15:38;;;;;;;0.20;0.10;;;;;;;1.75;96.49;101325.06;5015306;28;20532;-88
2024/01/13 04:18:05;;;;;;;0.20;0.10;;;;;;;1.57;96.75;101309.78;5010887;28;20956;-88
2024/01/13 04:20:32;;;;;;;0.20;0.10;;;;;;;1.53;97.13;101313.19;5037080;28;20455;-88
2024/01/13 04:22:58;;;;;;;0.20;0.10;;;;;;;1.42;97.40;101302.44;5008400;28;20566;-88
2024/01/13 04:25:25;;;;;;;0.20;0.10;;;;;;;1.45;98.04;101292.03;5029949;28;20510;-88
2024/01/13 04:27:54;;;;;;;0.20;0.10;;;;;;;1.57;97.47;101291.44;5003968;28;20871;-88
2024/01/13 04:30:20;;;;;;;0.20;0.10;;;;;;;1.74;96.96;101295.34;5016494;28;20484;-87
2024/01/13 04:32:47;;;;;;;0.20;0.10;;;;;;;1.70;96.82;101303.09;5023946;28;20460;-89
2024/01/13 04:35:14;;;;;;;0.20;0.10;;;;;;;1.59;97.60;101294.09;5035375;28;20452;-89
2024/01/13 04:37:41;;;;;;;0.20;0.10;;;;;;;1.61;97.05;101292.41;5016902;28;20992;-88
2024/01/13 04:40:08;;;;;;;0.20;0.10;;;;;;;1.30;97.96;101306.47;5017329;28;20453;-89
2024/01/13 04:42:35;;;;;;;0.20;0.10;;;;;;;1.48;98.32;101305.19;5016545;28;20500;-89
2024/01/13 04:45:01;;;;;;;0.20;0.10;;;;;;;1.09;98.37;101286.75;5030007;28;20995;-89
2024/01/13 04:47:28;;;;;;;0.20;0.10;;;;;;;1.33;98.44;101286.47;5018042;28;20484;-88
2024/01/13 04:49:54;;;;;;;0.20;0.13;;;;;;;1.58;98.24;101301.06;5018637;28;20460;-89
2024/01/13 04:52:21;;;;;;;0.20;0.10;;;;;;;1.66;97.11;101304.78;5018155;28;20542;-89
2024/01/13 04:54:47;;;;;;;0.20;0.10;;;;;;;1.57;96.66;101306.28;5031000;28;20552;-89
2024/01/13 04:57:14;;;;;;;0.20;0.10;;;;;;;1.57;96.35;101301.03;5008126;28;20464;-88
2024/01/13 04:59:41;;;;;;;0.20;0.10;;;;;;;1.65;96.80;101295.16;5010801;28;20493;-88
2024/01/13 05:02:07;;;;;;;0.20;0.10;;;;;;;1.58;96.66;101297.56;5007272;28;20542;-88
2024/01/13 05:04:34;;;;;;;0.20;0.10;;;;;;;1.58;96.75;101294.94;5031205;28;20460;-89
2024/01/13 05:07:01;;;;;;;0.20;0.10;;;;;;;1.47;96.09;101281.59;5029317;28;20537;-88
2024/01/13 05:09:27;;;;;;;0.20;0.10;;;;;;;1.58;95.50;101293.22;5018447;28;20448;-88
2024/01/13 05:11:54;;;;;;;0.20;0.10;;;;;;;1.43;95.83;101288.50;5009544;28;20850;-88
2024/01/13 05:14:20;;;;;;;0.20;0.10;;;;;;;1.64;97.10;101285.47;5018830;28;20447;-88
2024/01/13 05:16:47;;;;;;;0.20;0.10;;;;;;;1.63;96.92;101280.22;5007218;28;20444;-88
2024/01/13 05:19:14;;;;;;;0.20;0.10;;;;;;;1.68;96.82;101279.50;5028136;28;20457;-88
2024/01/13 05:21:41;;;;;;;0.20;0.10;;;;;;;1.65;96.42;101260.19;5017804;28;20472;-88
2024/01/13 05:24:07;;;;;;;0.20;0.10;;;;;;;1.52;96.51;101258.13;5013180;28;20469;-88
2024/01/13 05:26:33;;;;;;;0.20;0.10;;;;;;;1.40;97.50;101275.31;5017379;28;20511;-88
2024/01/13 05:29:00;;;;;;;0.20;0.10;;;;;;;1.60;97.28;101272.28;5024083;28;20521;-88
2024/01/13 05:31:26;;;;;;;0.20;0.10;;;;;;;1.62;97.86;101270.59;5026205;28;20468;-89
2024/01/13 05:33:53;;;;;;;0.20;0.10;;;;;;;1.70;96.96;101267.31;5020193;28;20491;-89
2024/01/13 05:36:21;;;;;;;0.20;0.10;;;;;;;1.46;96.68;101235.28;5017597;28;20511;-88
2024/01/13 05:38:47;;;;;;;0.20;0.10;;;;;;;1.59;96.36;101245.19;5010862;28;20457;-88
2024/01/13 05:41:14;;;;;;;0.20;0.10;;;;;;;1.66;96.08;101254.09;5014500;28;20499;-87
2024/01/13 05:43:40;;;;;;;0.20;0.10;;;;;;;1.65;96.17;101244.47;5029567;28;20457;-88
2024/01/13 05:46:11;;;;;;;0.20;0.10;;;;;;;1.36;97.33;101234.16;5005541;28;20465;-88
2024/01/13 05:48:38;;;;;;;0.20;0.10;;;;;;;1.48;97.66;101246.69;5021150;28;20432;-89
2024/01/13 05:51:07;;;;;;;0.20;0.10;;;;;;;1.66;96.93;101234.03;5025480;28;20469;-89
2024/01/13 05:53:34;;;;;;;0.20;0.10;;;;;;;1.72;96.75;101235.88;5017768;28;20527;-89
2024/01/13 05:56:01;;;;;;;0.20;0.10;;;;;;;1.57;95.96;101223.31;5017295;28;20452;-89
2024/01/13 05:58:27;;;;;;;0.20;0.10;;;;;;;1.64;96.01;101229.56;5011494;28;20810;-88
2024/01/13 06:00:53;;;;;;;0.20;0.10;;;;;;;1.70;95.77;101228.00;5010475;28;20504;-88
2024/01/13 06:03:20;;;;;;;0.20;0.10;;;;;;;1.80;95.92;101225.59;5016260;28;20453;-88
2024/01/13 06:05:47;;;;;;;0.20;0.10;;;;;;;1.61;97.14;101226.88;5004960;28;20552;-88
2024/01/13 06:08:13;;;;;;;0.20;0.10;;;;;;;1.59;96.64;101219.00;5010921;28;20569;-88
2024/01/13 06:10:40;;;;;;;0.20;0.10;;;;;;;1.75;95.98;101214.97;5010204;28;20527;-88
2024/01/13 06:13:07;;;;;;;0.20;0.10;;;;;;;1.82;95.19;101222.16;5003568;28;20456;-88
2024/01/13 06:15:33;;;;;;;0.20;0.10;;;;;;;1.65;95.14;101203.44;5016620;28;20539;-88
2024/01/13 06:18:00;;;;;;;0.20;0.10;;;;;;;1.66;95.52;101180.75;5017575;28;20460;-88
2024/01/13 06:20:27;;;;;;;0.20;0.10;;;;;;;1.48;95.71;101191.66;5015772;28;20854;-88
2024/01/13 06:22:53;;;;;;;0.30;0.20;;;;;;;1.61;96.17;101192.84;5010055;28;20464;-88
2024/01/13 06:25:19;;;;;;;0.20;0.10;;;;;;;1.71;96.04;101210.53;5009671;28;20524;-88
2024/01/13 06:27:46;;;;;;;0.20;0.10;;;;;;;1.81;96.35;101211.63;5010465;28;20600;-88
2024/01/13 06:30:13;;;;;;;0.20;0.10;;;;;;;1.83;96.32;101213.44;5008712;28;20549;-88
2024/01/13 06:32:39;;;;;;;0.20;0.10;;;;;;;1.90;95.67;101209.19;5009018;28;20597;-87
2024/01/13 06:35:07;;;;;;;0.20;0.10;;;;;;;1.74;95.55;101197.50;5022945;28;20482;-89
2024/01/13 06:37:34;;;;;;;0.20;0.10;;;;;;;1.53;96.01;101200.53;5026008;28;20484;-88
2024/01/13 06:40:00;;;;;;;0.20;0.10;;;;;;;1.83;96.04;101223.91;5028537;28;20486;-88
2024/01/13 06:42:26;;;;;;;0.20;0.10;;;;;;;1.63;96.40;101219.94;5017800;28;20476;-87
2024/01/13 06:44:54;;;;;;;0.30;0.10;;;;;;;1.72;96.35;101213.19;5015718;28;20887;-88
2024/01/13 06:47:21;;;;;;;0.20;0.10;;;;;;;1.77;95.42;101210.66;5012735;28;20485;-87
2024/01/13 06:49:48;;;;;;;0.20;0.10;;;;;;;1.77;95.96;101201.06;5022433;28;20453;-87
2024/01/13 06:52:14;;;;;;;0.77;0.77;;;;;;;1.88;95.82;101222.25;5020640;28;20511;-87
2024/01/13 06:54:41;;;;;;;0.20;0.10;;;;;;;1.94;95.02;101217.16;5026989;28;20464;-88
2024/01/13 06:57:07;;;;;;;0.20;0.10;;;;;;;1.89;95.04;101203.06;5030546;28;20808;-87
2024/01/13 06:59:43;;;;;;;0.20;0.10;;;;;;;1.97;94.88;101204.13;5070111;28;20556;-49
2024/01/13 07:02:10;;;;;;;0.20;0.10;;;;;;;1.95;94.79;101208.44;5056637;28;20461;-48
2024/01/13 07:04:37;;;;;;;0.20;0.10;;;;;;;1.90;94.78;101210.06;5062963;28;20455;-48
2024/01/13 07:07:05;;;;;;;0.20;0.10;;;;;;;1.91;95.38;101206.59;5051828;28;20447;-48
2024/01/13 07:09:31;;;;;;;0.20;0.10;;;;;;;1.75;94.96;101205.38;5062480;28;20497;-47
2024/01/13 07:11:58;;;;;;;0.20;0.10;;;;;;;1.89;95.58;101205.69;5077851;22;21116;-48
2024/01/13 07:14:25;;;;;;;0.20;0.10;;;;;;;1.89;95.73;101204.81;5067883;28;20466;-48
2024/01/13 07:16:51;;;;;;;0.20;0.10;;;;;;;1.78;95.67;101204.56;5068164;28;20818;-48
2024/01/13 07:19:18;;;;;;;0.20;0.10;;;;;;;1.73;96.90;101204.47;5055155;28;20475;-48
2024/01/13 07:21:45;;;;;;;0.20;0.10;;;;;;;1.70;96.17;101206.16;5051238;28;20525;-48
2024/01/13 07:24:12;;;;;;;0.20;0.10;;;;;;;1.81;95.95;101202.03;5063487;28;20538;-48
2024/01/13 07:26:39;;;;;;;0.20;0.10;;;;;;;1.89;95.36;101197.81;5057396;28;20450;-48
2024/01/13 07:29:06;;;;;;;0.20;0.10;;;;;;;2.01;94.98;101189.34;5062833;28;20493;-48
2024/01/13 07:31:33;;;;;;;0.20;0.10;;;;;;;2.02;95.70;101206.81;5068122;28;20469;-48
2024/01/13 07:34:00;;;;;;;0.20;0.10;;;;;;;2.04;94.79;101212.97;5056001;28;20449;-48
2024/01/13 07:36:26;;;;;;;0.20;0.17;;;;;;;1.95;95.80;101221.56;5068967;28;20442;-51
2024/01/13 07:38:53;;;;;;;0.20;0.10;;;;;;;1.93;95.36;101215.41;5054753;28;20805;-48
2024/01/13 07:41:19;;;;;;;0.20;0.10;;;;;;;1.92;96.02;101213.63;5060558;28;20991;-48
2024/01/13 07:43:46;;;;;;;0.20;0.20;;;;;;;1.93;95.39;101212.78;5063698;28;20819;-48
2024/01/13 07:46:12;;;;;;;0.20;0.10;;;;;;;2.07;94.84;101218.31;5060247;28;20446;-48
2024/01/13 07:48:39;;;;;;;0.57;0.57;;;;;;;2.03;94.99;101213.84;5055055;28;20493;-48
2024/01/13 07:51:05;;;;;;;0.20;0.10;;;;;;;2.13;94.14;101207.94;5056425;28;20470;-48
2024/01/13 07:53:32;;;;;;;0.20;0.10;;;;;;;1.94;93.87;101201.44;5061825;28;20447;-48
2024/01/13 07:55:59;;;;;;;0.20;0.10;;;;;;;2.12;94.20;101205.28;5061493;28;20452;-48
2024/01/13 07:58:25;;;;;;;0.20;0.10;;;;;;;2.11;93.89;101207.03;5055668;28;20496;-48
2024/01/13 08:00:52;;;;;;;0.20;0.10;;;;;;;2.19;94.02;101218.53;5056942;28;20473;-49
2024/01/13 08:03:19;;;;;;;0.20;0.20;;;;;;;2.26;92.33;101230.94;5061595;28;20448;-48
2024/01/13 08:05:45;;;;;;;0.20;0.10;;;;;;;2.32;92.05;101238.03;5061191;28;20450;-49
2024/01/13 08:08:12;;;;;;;0.20;0.10;;;;;;;2.27;91.66;101232.72;5063283;28;20518;-48
2024/01/13 08:10:38;;;;;;;0.20;0.10;;;;;;;2.16;92.02;101230.72;5044129;28;20858;-48
2024/01/13 08:13:05;;;;;;;0.20;0.10;;;;;;;2.33;92.50;101232.84;5035702;28;20457;-49
2024/01/13 08:15:32;;;;;;;0.20;0.10;;;;;;;2.44;91.74;101238.28;5054600;28;20451;-49
2024/01/13 08:17:58;;;;;;;0.20;0.10;;;;;;;2.31;91.81;101228.41;5040410;28;20446;-49
2024/01/13 08:20:26;;;;;;;0.20;0.10;;;;;;;2.37;92.08;101236.41;5053846;28;20475;-49
2024/01/13 08:22:53;;;;;;;0.20;0.10;;;;;;;2.41;91.46;101225.09;5051177;28;20455;-49
2024/01/13 08:25:19;;;;;;;0.20;0.10;;;;;;;2.44;91.50;101224.28;5054596;28;20792;-49
2024/01/13 08:27:46;;;;;;;0.20;0.10;;;;;;;2.41;91.15;101211.09;5048335;28;20487;-49
2024/01/13 08:30:12;;;;;;;0.20;0.10;;;;;;;2.38;91.33;101210.19;5047218;28;20454;-49
2024/01/13 08:32:39;;;;;;;0.20;0.10;;;;;;;2.42;91.48;101198.03;5048731;28;20460;-49
2024/01/13 08:35:07;;;;;;;0.20;0.10;;;;;;;2.43;92.03;101199.78;5053401;28;20538;-49
2024/01/13 08:37:33;;;;;;;0.20;0.10;;;;;;;2.37;92.03;101194.44;5053938;28;20497;-49
2024/01/13 08:40:04;;;;;;;0.20;0.10;;;;;;;2.33;92.32;101196.13;5053476;28;20442;-49
2024/01/13 08:42:31;;;;;;;0.20;0.10;;;;;;;2.44;92.28;101195.41;5048245;28;20486;-50
2024/01/13 08:44:58;;;;;;;0.20;0.10;;;;;;;2.43;91.76;101193.66;5054393;28;20455;-50
2024/01/13 08:47:24;;;;;;;0.20;0.10;;;;;;;2.46;91.78;101193.69;5054173;28;20450;-49
2024/01/13 08:49:51;;;;;;;0.20;0.10;;;;;;;2.44;91.25;101198.94;5041250;28;20491;-49
2024/01/13 08:52:17;;;;;;;0.20;0.10;;;;;;;2.42;91.78;101192.78;5052910;28;20562;-49
2024/01/13 08:54:43;;;;;;;0.20;0.10;;;;;;;2.50;91.35;101203.44;5053579;28;20537;-49
2024/01/13 08:57:10;;;;;;;0.20;0.10;;;;;;;2.47;90.82;101198.09;5053708;28;20920;-50
2024/01/13 08:59:37;;;;;;;0.20;0.10;;;;;;;2.48;90.83;101199.91;5051841;28;20443;-49
2024/01/13 09:02:04;;;;;;;0.20;0.10;;;;;;;2.52;90.70;101202.59;5043019;28;20509;-50
2024/01/13 09:04:30;;;;;;;0.20;0.10;;;;;;;2.45;91.03;101194.56;5052221;28;20464;-50
2024/01/13 09:06:57;;;;;;;0.20;0.10;;;;;;;2.49;90.68;101199.03;5053372;28;20537;-50
2024/01/13 09:09:28;;;;;;;0.20;0.10;;;;;;;2.49;90.98;101206.91;5053097;28;20487;-50
2024/01/13 09:11:55;;;;;;;0.20;0.10;;;;;;;2.35;90.96;101204.91;5050744;28;20585;-51
2024/01/13 09:14:22;;;;;;;0.20;0.10;;;;;;;2.44;91.04;101203.28;5047016;28;20466;-50
2024/01/13 09:16:48;;;;;;;0.20;0.10;;;;;;;2.46;90.90;101189.34;5043594;28;20450;-50
2024/01/13 09:19:14;;;;;;;0.20;0.10;;;;;;;2.42;90.74;101177.03;5052600;28;20550;-56
2024/01/13 09:21:41;;;;;;;0.20;0.10;;;;;;;2.45;91.66;101168.31;5034423;28;20481;-50
2024/01/13 09:24:12;;;;;;;0.20;0.10;;;;;;;2.45;91.09;101163.06;5048733;28;20944;-50
2024/01/13 09:26:43;;;;;;;0.20;0.10;;;;;;;2.46;91.05;101172.72;5047737;28;20504;-50
2024/01/13 09:29:15;;;;;;;0.20;0.10;;;;;;;2.43;90.44;101173.53;5039543;28;20597;-49
2024/01/13 09:31:44;;;;;;;0.20;0.10;;;;;;;2.41;89.95;101185.75;5052674;28;21187;-49
2024/01/13 09:34:11;;;;;;;0.20;0.10;;;;;;;2.43;90.02;101186.66;5048935;28;20465;-50
2024/01/13 09:36:40;;;;;;;0.20;0.10;;;;;;;2.46;89.78;101180.59;5052664;28;20466;-50
2024/01/13 09:39:11;;;;;;;0.20;0.10;;;;;;;2.49;89.62;101181.56;5049909;28;20455;-50
2024/01/13 09:41:43;;;;;;;0.20;0.10;;;;;;;2.50;88.92;101187.69;5027329;28;20854;-50
2024/01/13 09:44:32;;;;;;;0.20;0.10;;;;;;;2.47;88.82;101170.16;5044983;28;20459;-50
2024/01/13 09:47:00;;;;;;;0.20;0.10;;;;;;;2.91;87.73;101138.53;5046864;28;20479;-51
2024/01/13 09:49:30;;;;;;;3.17;2.97;;;;;;;2.56;87.34;101145.78;5045593;28;20487;-50
2024/01/13 09:52:02;;;;;;;0.20;0.10;;;;;;;2.61;88.13;101137.16;5039617;28;20474;-50
2024/01/13 09:54:30;;;;;;;0.20;0.10;;;;;;;2.60;88.37;101124.91;5039253;28;20455;-51
2024/01/13 09:56:58;;;;;;;0.20;0.10;;;;;;;2.64;88.20;101116.22;5045919;28;20454;-51
2024/01/13 09:59:28;;;;;;;0.50;0.50;;;;;;;2.76;88.31;101109.41;5047350;28;20447;-51
2024/01/13 10:01:56;;;;;;;0.20;0.10;;;;;;;2.85;87.62;101110.41;5043200;28;20455;-51
2024/01/13 10:04:23;;;;;;;0.20;0.10;;;;;;;2.91;86.91;101118.41;5041962;28;20451;-53
2024/01/13 10:06:50;;;;;;;0.20;0.10;;;;;;;3.01;86.29;101135.16;5050603;28;20461;-50
2024/01/13 10:09:17;;;;;;;0.20;0.10;;;;;;;2.71;86.70;101140.81;5052384;28;20585;-50
2024/01/13 10:12:02;;;;;;;0.20;0.10;;;;;;;2.78;86.86;101142.69;5043227;28;21064;-50
2024/01/13 10:14:29;;;;;;;0.20;0.10;;;;;;;2.67;87.27;101141.63;5049168;28;20513;-50
2024/01/13 10:17:01;;;;;;;0.20;0.10;;;;;;;2.58;87.50;101141.44;5043846;28;20487;-50
2024/01/13 10:19:28;;;;;;;0.20;0.10;;;;;;;2.60;87.89;101135.41;5038998;28;20443;-49
2024/01/13 10:21:56;;;;;;;0.20;0.10;;;;;;;2.59;87.76;101127.47;5039317;28;20471;-50
2024/01/13 10:24:22;;;;;;;0.20;0.10;;;;;;;2.79;88.02;101104.19;5045539;28;20487;-50
2024/01/13 10:26:49;;;;;;;0.20;0.10;;;;;;;2.77;87.81;101108.53;5048617;28;20503;-50
2024/01/13 10:29:15;;;;;;;0.20;0.10;;;;;;;2.79;87.78;101140.94;5041751;28;20486;-50
2024/01/13 10:31:42;;;;;;;0.20;0.10;;;;;;;2.84;87.45;101123.53;5040119;28;20562;-50
2024/01/13 10:34:12;;;;;;;0.20;0.10;;;;;;;2.79;86.96;101120.84;5040720;28;20525;-50
2024/01/13 10:36:39;;;;;;;0.20;0.10;;;;;;;2.54;87.95;101121.28;5052186;28;20443;-50
2024/01/13 10:39:07;;;;;;;0.20;0.10;;;;;;;2.59;88.14;101117.84;5045964;28;20454;-50
2024/01/13 10:41:35;;;;;;;0.20;0.10;;;;;;;2.64;88.50;101096.97;5052094;28;20995;-50
2024/01/13 10:44:07;;;;;;;0.20;0.10;;;;;;;2.92;87.82;101096.53;5045619;28;20509;-51
2024/01/13 10:46:37;;;;;;;0.20;0.10;;;;;;;3.02;86.89;101084.44;5048760;28;20465;-50
2024/01/13 10:49:12;;;;;;;0.20;0.10;;;;;;;3.06;86.39;101072.22;5043720;28;20486;-50
2024/01/13 10:51:50;;;;;;;0.20;0.10;;;;;;;2.75;86.49;101068.28;5040597;28;20467;-50
2024/01/13 10:54:18;;;;;;;0.20;0.10;;;;;;;2.72;87.39;101057.69;5040826;28;20448;-50
2024/01/13 10:56:44;;;;;;;0.20;0.10;;;;;;;2.94;86.78;101067.69;5046238;28;20452;-50
2024/01/13 10:59:13;;;;;;;0.20;0.10;;;;;;;2.88;86.24;101050.09;5046401;28;20446;-51
2024/01/13 11:01:42;;;;;;;0.20;0.10;;;;;;;2.65;86.07;101036.63;5039694;28;20470;-50
2024/01/13 11:04:10;;;;;;;0.20;0.10;;;;;;;2.99;86.08;101026.59;5022104;28;20455;-51
2024/01/13 11:06:37;;;;;;;0.20;0.10;;;;;;;2.99;85.21;100997.72;5048265;28;20463;-50
2024/01/13 11:09:06;;;;;;;0.20;0.10;;;;;;;2.64;85.70;100995.50;5052667;28;20999;-51
2024/01/13 11:11:38;;;;;;;0.20;0.10;;;;;;;2.68;86.21;100991.16;5046139;28;20479;-50
2024/01/13 11:14:25;;;;;;;0.20;0.10;;;;;;;2.85;85.82;100981.78;5051316;28;20504;-51
2024/01/13 11:16:54;;;;;;;0.20;0.10;;;;;;;2.83;85.75;100983.50;5043590;28;20936;-50
2024/01/13 11:19:20;;;;;;;0.20;0.10;;;;;;;2.94;84.86;101008.16;5038744;28;20469;-50
2024/01/13 11:21:48;;;;;;;0.20;0.10;;;;;;;2.85;84.56;101028.16;5041019;28;20472;-50
2024/01/13 11:24:17;;;;;;;0.20;0.10;;;;;;;2.76;84.76;101033.28;5045308;28;21001;-50
2024/01/13 11:26:50;;;;;;;0.20;0.10;;;;;;;2.65;84.50;101047.13;5044457;28;20954;-50
2024/01/13 11:29:24;;;;;;;19.80;17.90;;;;;;;2.53;84.07;101039.06;5039104;28;20487;-50
2024/01/13 11:31:58;;;;;;;0.20;0.10;;;;;;;2.80;83.38;101038.59;5038765;28;20467;-50
2024/01/13 11:34:27;;;;;;;0.20;0.10;;;;;;;2.58;84.20;101041.75;5043276;28;20960;-50
2024/01/13 11:37:02;;;;;;;0.20;0.10;;;;;;;2.48;84.12;101035.47;5047683;28;20544;-50